sensor_id;sensor_type;location;lat;lon;timestamp;temperature;humidity
8595;DHT22;4335;48.860;9.198;2023-07-31T00:00:20;17.50;99.90
8595;DHT22;4335;48.860;9.198;2023-07-31T00:02:51;17.50;99.90
8595;DHT22;4335;48.860;9.198;2023-07-31T00:05:18;17.50;99.90
8595;DHT22;4335;48.860;9.198;2023-07-31T00:07:57;17.40;99.90
8595;DHT22;4335;48.860;9.198;2023-07-31T00:10:33;17.40;99.90
8595;DHT22;4335;48.860;9.198;2023-07-31T00:12:59;17.40;99.90
8595;DHT22;4335;48.860;9.198;2023-07-31T00:15:29;17.30;99.90
8595;DHT22;4335;48.860;9.198;2023-07-31T00:17:57;17.30;99.90
8595;DHT22;4335;48.860;9.198;2023-07-31T00:20:23;17.30;99.90
8595;DHT22;4335;48.860;9.198;2023-07-31T00:22:56;17.30;99.90
8595;DHT22;4335;48.860;9.198;2023-07-31T00:25:26;17.30;99.90
8595;DHT22;4335;48.860;9.198;2023-07-31T00:27:55;17.30;99.90
8595;DHT22;4335;48.860;9.198;2023-07-31T00:30:21;17.30;99.90
8595;DHT22;4335;48.860;9.198;2023-07-31T00:32:48;17.30;99.90
8595;DHT22;4335;48.860;9.198;2023-07-31T00:35:16;17.30;99.90
8595;DHT22;4335;48.860;9.198;2023-07-31T00:37:51;17.30;99.90
8595;DHT22;4335;48.860;9.198;2023-07-31T00:40:21;17.30;99.90
8595;DHT22;4335;48.860;9.198;2023-07-31T00:42:47;17.30;99.90
8595;DHT22;4335;48.860;9.198;2023-07-31T00:45:20;17.30;99.90
8595;DHT22;4335;48.860;9.198;2023-07-31T00:47:52;17.30;99.90
8595;DHT22;4335;48.860;9.198;2023-07-31T00:50:19;17.30;99.90
8595;DHT22;4335;48.860;9.198;2023-07-31T00:52:55;17.30;99.90
8595;DHT22;4335;48.860;9.198;2023-07-31T00:55:43;17.30;99.90
8595;DHT22;4335;48.860;9.198;2023-07-31T00:58:10;17.20;99.90
8595;DHT22;4335;48.860;9.198;2023-07-31T01:00:36;17.20;99.90
8595;DHT22;4335;48.860;9.198;2023-07-31T01:03:06;17.10;99.90
8595;DHT22;4335;48.860;9.198;2023-07-31T01:05:39;17.10;99.90
8595;DHT22;4335;48.860;9.198;2023-07-31T01:08:18;17.10;99.90
8595;DHT22;4335;48.860;9.198;2023-07-31T01:11:09;17.10;99.90
8595;DHT22;4335;48.860;9.198;2023-07-31T01:13:42;17.10;99.90
8595;DHT22;4335;48.860;9.198;2023-07-31T01:16:08;17.00;99.90
8595;DHT22;4335;48.860;9.198;2023-07-31T01:18:35;17.00;99.90
8595;DHT22;4335;48.860;9.198;2023-07-31T01:21:14;16.90;99.90
8595;DHT22;4335;48.860;9.198;2023-07-31T01:24:20;16.90;99.90
8595;DHT22;4335;48.860;9.198;2023-07-31T01:26:53;16.90;99.90
8595;DHT22;4335;48.860;9.198;2023-07-31T01:29:26;16.80;99.90
8595;DHT22;4335;48.860;9.198;2023-07-31T01:31:57;16.90;99.90
8595;DHT22;4335;48.860;9.198;2023-07-31T01:34:29;16.80;99.90
8595;DHT22;4335;48.860;9.198;2023-07-31T01:36:58;16.80;99.90
8595;DHT22;4335;48.860;9.198;2023-07-31T01:39:28;16.80;99.90
8595;DHT22;4335;48.860;9.198;2023-07-31T01:41:55;16.80;99.90
8595;DHT22;4335;48.860;9.198;2023-07-31T01:44:31;16.90;99.90
8595;DHT22;4335;48.860;9.198;2023-07-31T01:46:58;16.90;99.90
8595;DHT22;4335;48.860;9.198;2023-07-31T01:49:26;16.90;99.90
8595;DHT22;4335;48.860;9.198;2023-07-31T01:51:56;16.90;99.90
8595;DHT22;4335;48.860;9.198;2023-07-31T01:54:25;16.90;99.90
8595;DHT22;4335;48.860;9.198;2023-07-31T01:56:52;16.90;99.90
8595;DHT22;4335;48.860;9.198;2023-07-31T01:59:20;16.90;99.90
8595;DHT22;4335;48.860;9.198;2023-07-31T02:01:46;16.90;99.90
8595;DHT22;4335;48.860;9.198;2023-07-31T02:04:15;16.80;99.90
8595;DHT22;4335;48.860;9.198;2023-07-31T02:06:42;16.80;99.90
8595;DHT22;4335;48.860;9.198;2023-07-31T02:09:09;16.80;99.90
8595;DHT22;4335;48.860;9.198;2023-07-31T02:11:36;16.80;99.90
8595;DHT22;4335;48.860;9.198;2023-07-31T02:14:02;16.70;99.90
8595;DHT22;4335;48.860;9.198;2023-07-31T02:16:32;16.70;99.90
8595;DHT22;4335;48.860;9.198;2023-07-31T02:18:58;16.60;99.90
8595;DHT22;4335;48.860;9.198;2023-07-31T02:21:31;16.60;99.90
8595;DHT22;4335;48.860;9.198;2023-07-31T02:23:57;16.60;99.90
8595;DHT22;4335;48.860;9.198;2023-07-31T02:26:30;16.60;99.90
8595;DHT22;4335;48.860;9.198;2023-07-31T02:29:09;16.60;99.90
8595;DHT22;4335;48.860;9.198;2023-07-31T02:31:37;16.60;99.90
8595;DHT22;4335;48.860;9.198;2023-07-31T02:34:04;16.60;99.90
8595;DHT22;4335;48.860;9.198;2023-07-31T02:36:34;16.60;99.90
8595;DHT22;4335;48.860;9.198;2023-07-31T02:39:03;16.60;99.90
8595;DHT22;4335;48.860;9.198;2023-07-31T02:41:30;16.60;99.90
8595;DHT22;4335;48.860;9.198;2023-07-31T02:43:57;16.60;99.90
8595;DHT22;4335;48.860;9.198;2023-07-31T02:46:32;16.60;99.90
8595;DHT22;4335;48.860;9.198;2023-07-31T02:49:00;16.60;99.90
8595;DHT22;4335;48.860;9.198;2023-07-31T02:51:27;16.60;99.90
8595;DHT22;4335;48.860;9.198;2023-07-31T02:53:53;16.50;99.90
8595;DHT22;4335;48.860;9.198;2023-07-31T02:56:20;16.50;99.90
8595;DHT22;4335;48.860;9.198;2023-07-31T02:58:47;16.50;99.90
8595;DHT22;4335;48.860;9.198;2023-07-31T03:01:19;16.50;99.90
8595;DHT22;4335;48.860;9.198;2023-07-31T03:03:49;16.50;99.90
8595;DHT22;4335;48.860;9.198;2023-07-31T03:06:16;16.50;99.90
8595;DHT22;4335;48.860;9.198;2023-07-31T03:08:46;16.50;99.90
8595;DHT22;4335;48.860;9.198;2023-07-31T03:11:13;16.50;99.90
8595;DHT22;4335;48.860;9.198;2023-07-31T03:13:45;16.50;99.90
8595;DHT22;4335;48.860;9.198;2023-07-31T03:16:21;16.40;99.90
8595;DHT22;4335;48.860;9.198;2023-07-31T03:18:51;16.40;99.90
8595;DHT22;4335;48.860;9.198;2023-07-31T03:21:22;16.40;99.90
8595;DHT22;4335;48.860;9.198;2023-07-31T03:23:52;16.30;99.90
8595;DHT22;4335;48.860;9.198;2023-07-31T03:26:22;16.40;99.90
8595;DHT22;4335;48.860;9.198;2023-07-31T03:28:51;16.30;99.90
8595;DHT22;4335;48.860;9.198;2023-07-31T03:31:18;16.30;99.90
8595;DHT22;4335;48.860;9.198;2023-07-31T03:33:47;16.30;99.90
8595;DHT22;4335;48.860;9.198;2023-07-31T03:36:21;16.30;99.90
8595;DHT22;4335;48.860;9.198;2023-07-31T03:38:52;16.30;99.90
8595;DHT22;4335;48.860;9.198;2023-07-31T03:41:21;16.20;99.90
8595;DHT22;4335;48.860;9.198;2023-07-31T03:43:56;16.20;99.90
8595;DHT22;4335;48.860;9.198;2023-07-31T03:46:22;16.20;99.90
8595;DHT22;4335;48.860;9.198;2023-07-31T03:48:49;16.20;99.90
8595;DHT22;4335;48.860;9.198;2023-07-31T03:51:16;16.20;99.90
8595;DHT22;4335;48.860;9.198;2023-07-31T03:53:46;16.10;99.90
8595;DHT22;4335;48.860;9.198;2023-07-31T03:56:14;16.10;99.90
8595;DHT22;4335;48.860;9.198;2023-07-31T03:58:43;16.10;99.90
8595;DHT22;4335;48.860;9.198;2023-07-31T04:01:10;16.10;99.90
8595;DHT22;4335;48.860;9.198;2023-07-31T04:03:40;16.10;99.90
8595;DHT22;4335;48.860;9.198;2023-07-31T04:06:06;16.00;99.90
8595;DHT22;4335;48.860;9.198;2023-07-31T04:08:33;16.10;99.90
8595;DHT22;4335;48.860;9.198;2023-07-31T04:11:01;16.10;99.90
8595;DHT22;4335;48.860;9.198;2023-07-31T04:13:29;16.30;99.90
8595;DHT22;4335;48.860;9.198;2023-07-31T04:15:56;16.40;99.90
8595;DHT22;4335;48.860;9.198;2023-07-31T04:18:25;16.50;99.90
8595;DHT22;4335;48.860;9.198;2023-07-31T04:21:04;16.70;99.90
8595;DHT22;4335;48.860;9.198;2023-07-31T04:23:33;16.80;99.90
8595;DHT22;4335;48.860;9.198;2023-07-31T04:26:04;16.90;99.90
8595;DHT22;4335;48.860;9.198;2023-07-31T04:28:31;17.00;99.90
8595;DHT22;4335;48.860;9.198;2023-07-31T04:30:57;17.00;99.90
8595;DHT22;4335;48.860;9.198;2023-07-31T04:33:24;17.00;99.90
8595;DHT22;4335;48.860;9.198;2023-07-31T04:35:59;17.10;99.90
8595;DHT22;4335;48.860;9.198;2023-07-31T04:38:29;17.10;99.90
8595;DHT22;4335;48.860;9.198;2023-07-31T04:40:57;17.20;99.90
8595;DHT22;4335;48.860;9.198;2023-07-31T04:43:27;17.20;99.90
8595;DHT22;4335;48.860;9.198;2023-07-31T04:45:59;17.40;99.90
8595;DHT22;4335;48.860;9.198;2023-07-31T04:48:38;17.50;99.90
8595;DHT22;4335;48.860;9.198;2023-07-31T04:51:05;17.60;99.90
8595;DHT22;4335;48.860;9.198;2023-07-31T04:53:33;17.60;99.90
8595;DHT22;4335;48.860;9.198;2023-07-31T04:56:06;17.80;99.90
8595;DHT22;4335;48.860;9.198;2023-07-31T04:58:34;17.80;99.90
8595;DHT22;4335;48.860;9.198;2023-07-31T05:01:00;17.90;99.90
8595;DHT22;4335;48.860;9.198;2023-07-31T05:03:36;18.10;99.90
8595;DHT22;4335;48.860;9.198;2023-07-31T05:06:03;18.20;99.90
8595;DHT22;4335;48.860;9.198;2023-07-31T05:08:32;18.30;99.90
8595;DHT22;4335;48.860;9.198;2023-07-31T05:11:02;18.40;99.90
8595;DHT22;4335;48.860;9.198;2023-07-31T05:13:29;18.50;99.90
8595;DHT22;4335;48.860;9.198;2023-07-31T05:15:56;18.50;99.90
8595;DHT22;4335;48.860;9.198;2023-07-31T05:18:23;18.50;99.90
8595;DHT22;4335;48.860;9.198;2023-07-31T05:20:53;18.50;99.90
8595;DHT22;4335;48.860;9.198;2023-07-31T05:23:19;18.50;99.90
8595;DHT22;4335;48.860;9.198;2023-07-31T05:25:49;18.60;99.90
8595;DHT22;4335;48.860;9.198;2023-07-31T05:28:15;18.60;99.90
8595;DHT22;4335;48.860;9.198;2023-07-31T05:30:48;18.70;99.90
8595;DHT22;4335;48.860;9.198;2023-07-31T05:33:15;18.80;99.90
8595;DHT22;4335;48.860;9.198;2023-07-31T05:35:42;18.90;99.90
8595;DHT22;4335;48.860;9.198;2023-07-31T05:38:10;19.20;99.90
8595;DHT22;4335;48.860;9.198;2023-07-31T05:40:38;19.50;99.90
8595;DHT22;4335;48.860;9.198;2023-07-31T05:43:04;19.70;99.90
8595;DHT22;4335;48.860;9.198;2023-07-31T05:45:39;20.00;99.90
8595;DHT22;4335;48.860;9.198;2023-07-31T05:48:06;20.00;99.90
8595;DHT22;4335;48.860;9.198;2023-07-31T05:50:33;20.20;99.90
8595;DHT22;4335;48.860;9.198;2023-07-31T05:53:00;20.30;99.90
8595;DHT22;4335;48.860;9.198;2023-07-31T05:55:30;20.30;99.90
8595;DHT22;4335;48.860;9.198;2023-07-31T05:58:00;20.30;99.90
8595;DHT22;4335;48.860;9.198;2023-07-31T06:00:26;20.30;99.90
8595;DHT22;4335;48.860;9.198;2023-07-31T06:02:53;20.20;99.90
8595;DHT22;4335;48.860;9.198;2023-07-31T06:05:23;20.30;99.90
8595;DHT22;4335;48.860;9.198;2023-07-31T06:07:50;20.30;99.90
8595;DHT22;4335;48.860;9.198;2023-07-31T06:10:17;20.40;99.90
8595;DHT22;4335;48.860;9.198;2023-07-31T06:12:44;20.60;99.90
8595;DHT22;4335;48.860;9.198;2023-07-31T06:15:11;20.70;99.90
8595;DHT22;4335;48.860;9.198;2023-07-31T06:17:38;20.80;99.90
8595;DHT22;4335;48.860;9.198;2023-07-31T06:20:11;21.00;99.90
8595;DHT22;4335;48.860;9.198;2023-07-31T06:22:40;21.50;99.90
8595;DHT22;4335;48.860;9.198;2023-07-31T06:25:08;22.00;99.90
8595;DHT22;4335;48.860;9.198;2023-07-31T06:27:35;22.60;99.90
8595;DHT22;4335;48.860;9.198;2023-07-31T06:30:02;23.20;99.90
8595;DHT22;4335;48.860;9.198;2023-07-31T06:32:30;23.80;99.90
8595;DHT22;4335;48.860;9.198;2023-07-31T06:34:56;24.20;99.90
8595;DHT22;4335;48.860;9.198;2023-07-31T06:37:23;24.30;99.90
8595;DHT22;4335;48.860;9.198;2023-07-31T06:39:50;24.50;99.90
8595;DHT22;4335;48.860;9.198;2023-07-31T06:42:21;24.80;99.90
8595;DHT22;4335;48.860;9.198;2023-07-31T06:44:47;25.00;99.90
8595;DHT22;4335;48.860;9.198;2023-07-31T06:47:14;25.20;99.90
8595;DHT22;4335;48.860;9.198;2023-07-31T06:49:48;25.10;99.90
8595;DHT22;4335;48.860;9.198;2023-07-31T06:52:15;25.00;99.90
8595;DHT22;4335;48.860;9.198;2023-07-31T06:54:41;25.40;99.90
8595;DHT22;4335;48.860;9.198;2023-07-31T06:57:08;26.00;99.90
8595;DHT22;4335;48.860;9.198;2023-07-31T06:59:35;26.10;99.90
8595;DHT22;4335;48.860;9.198;2023-07-31T07:02:05;26.40;99.90
8595;DHT22;4335;48.860;9.198;2023-07-31T07:04:32;27.10;99.90
8595;DHT22;4335;48.860;9.198;2023-07-31T07:06:59;27.30;97.90
8595;DHT22;4335;48.860;9.198;2023-07-31T07:09:34;27.70;97.00
8595;DHT22;4335;48.860;9.198;2023-07-31T07:12:07;27.50;96.00
8595;DHT22;4335;48.860;9.198;2023-07-31T07:14:33;27.40;95.50
8595;DHT22;4335;48.860;9.198;2023-07-31T07:17:01;27.00;95.80
8595;DHT22;4335;48.860;9.198;2023-07-31T07:19:31;27.30;96.00
8595;DHT22;4335;48.860;9.198;2023-07-31T07:22:00;27.30;95.50
8595;DHT22;4335;48.860;9.198;2023-07-31T07:24:33;27.20;96.00
8595;DHT22;4335;48.860;9.198;2023-07-31T07:27:00;27.00;95.90
8595;DHT22;4335;48.860;9.198;2023-07-31T07:29:29;26.70;96.00
8595;DHT22;4335;48.860;9.198;2023-07-31T07:32:09;26.50;96.70
8595;DHT22;4335;48.860;9.198;2023-07-31T07:34:41;26.50;97.60
8595;DHT22;4335;48.860;9.198;2023-07-31T07:37:08;26.50;97.60
8595;DHT22;4335;48.860;9.198;2023-07-31T07:39:35;26.50;97.20
8595;DHT22;4335;48.860;9.198;2023-07-31T07:42:04;26.40;97.20
8595;DHT22;4335;48.860;9.198;2023-07-31T07:44:31;26.60;97.10
8595;DHT22;4335;48.860;9.198;2023-07-31T07:47:01;26.20;97.10
8595;DHT22;4335;48.860;9.198;2023-07-31T07:49:31;26.40;97.40
8595;DHT22;4335;48.860;9.198;2023-07-31T07:51:58;27.20;96.80
8595;DHT22;4335;48.860;9.198;2023-07-31T07:54:30;27.70;95.50
8595;DHT22;4335;48.860;9.198;2023-07-31T07:56:57;28.20;93.90
8595;DHT22;4335;48.860;9.198;2023-07-31T07:59:24;29.00;92.80
8595;DHT22;4335;48.860;9.198;2023-07-31T08:01:50;30.00;90.70
8595;DHT22;4335;48.860;9.198;2023-07-31T08:04:36;31.00;87.40
8595;DHT22;4335;48.860;9.198;2023-07-31T08:07:06;31.90;82.70
8595;DHT22;4335;48.860;9.198;2023-07-31T08:09:35;31.50;79.40
8595;DHT22;4335;48.860;9.198;2023-07-31T08:12:08;30.90;79.10
8595;DHT22;4335;48.860;9.198;2023-07-31T08:14:35;30.40;80.90
8595;DHT22;4335;48.860;9.198;2023-07-31T08:17:08;30.10;81.70
8595;DHT22;4335;48.860;9.198;2023-07-31T08:19:35;30.10;82.40
8595;DHT22;4335;48.860;9.198;2023-07-31T08:22:02;30.30;81.40
8595;DHT22;4335;48.860;9.198;2023-07-31T08:24:35;30.50;81.00
8595;DHT22;4335;48.860;9.198;2023-07-31T08:27:09;30.90;80.20
8595;DHT22;4335;48.860;9.198;2023-07-31T08:29:36;31.10;78.90
8595;DHT22;4335;48.860;9.198;2023-07-31T08:32:06;30.90;78.20
8595;DHT22;4335;48.860;9.198;2023-07-31T08:34:36;31.30;78.10
8595;DHT22;4335;48.860;9.198;2023-07-31T08:37:06;31.30;76.00
8595;DHT22;4335;48.860;9.198;2023-07-31T08:39:33;32.20;73.30
8595;DHT22;4335;48.860;9.198;2023-07-31T08:41:59;32.30;71.20
8595;DHT22;4335;48.860;9.198;2023-07-31T08:44:26;32.20;71.90
8595;DHT22;4335;48.860;9.198;2023-07-31T08:46:53;32.20;72.00
8595;DHT22;4335;48.860;9.198;2023-07-31T08:49:21;32.70;71.20
8595;DHT22;4335;48.860;9.198;2023-07-31T08:51:55;32.60;69.40
8595;DHT22;4335;48.860;9.198;2023-07-31T08:54:23;32.90;67.50
8595;DHT22;4335;48.860;9.198;2023-07-31T08:56:51;32.10;68.00
8595;DHT22;4335;48.860;9.198;2023-07-31T08:59:18;31.90;67.90
8595;DHT22;4335;48.860;9.198;2023-07-31T09:01:50;32.70;67.20
8595;DHT22;4335;48.860;9.198;2023-07-31T09:04:26;33.50;65.50
8595;DHT22;4335;48.860;9.198;2023-07-31T09:07:01;34.70;63.10
8595;DHT22;4335;48.860;9.198;2023-07-31T09:09:29;36.00;60.10
8595;DHT22;4335;48.860;9.198;2023-07-31T09:11:57;35.70;57.80
8595;DHT22;4335;48.860;9.198;2023-07-31T09:14:25;35.40;57.40
8595;DHT22;4335;48.860;9.198;2023-07-31T09:16:55;35.60;56.90
8595;DHT22;4335;48.860;9.198;2023-07-31T09:19:28;34.60;57.90
8595;DHT22;4335;48.860;9.198;2023-07-31T09:21:57;33.60;59.70
8595;DHT22;4335;48.860;9.198;2023-07-31T09:24:28;32.70;61.30
8595;DHT22;4335;48.860;9.198;2023-07-31T09:26:59;31.50;63.30
8595;DHT22;4335;48.860;9.198;2023-07-31T09:29:29;30.80;66.50
8595;DHT22;4335;48.860;9.198;2023-07-31T09:31:56;30.30;68.50
8595;DHT22;4335;48.860;9.198;2023-07-31T09:34:36;29.80;69.40
8595;DHT22;4335;48.860;9.198;2023-07-31T09:37:13;29.40;71.70
8595;DHT22;4335;48.860;9.198;2023-07-31T09:39:49;28.80;72.90
8595;DHT22;4335;48.860;9.198;2023-07-31T09:42:27;28.50;75.40
8595;DHT22;4335;48.860;9.198;2023-07-31T09:45:07;28.20;76.70
8595;DHT22;4335;48.860;9.198;2023-07-31T09:47:46;27.80;78.60
8595;DHT22;4335;48.860;9.198;2023-07-31T09:50:14;27.50;81.90
8595;DHT22;4335;48.860;9.198;2023-07-31T09:52:42;27.50;83.00
8595;DHT22;4335;48.860;9.198;2023-07-31T09:55:15;27.80;84.50
8595;DHT22;4335;48.860;9.198;2023-07-31T09:57:46;28.60;82.00
8595;DHT22;4335;48.860;9.198;2023-07-31T10:00:19;28.80;80.20
8595;DHT22;4335;48.860;9.198;2023-07-31T10:02:51;29.50;80.00
8595;DHT22;4335;48.860;9.198;2023-07-31T10:05:19;30.30;76.80
8595;DHT22;4335;48.860;9.198;2023-07-31T10:07:52;30.60;74.80
8595;DHT22;4335;48.860;9.198;2023-07-31T10:10:20;30.60;74.20
8595;DHT22;4335;48.860;9.198;2023-07-31T10:12:48;30.20;74.50
8595;DHT22;4335;48.860;9.198;2023-07-31T10:15:19;30.90;72.10
8595;DHT22;4335;48.860;9.198;2023-07-31T10:17:49;31.70;68.50
8595;DHT22;4335;48.860;9.198;2023-07-31T10:20:26;31.70;68.10
8595;DHT22;4335;48.860;9.198;2023-07-31T10:22:55;31.70;67.40
8595;DHT22;4335;48.860;9.198;2023-07-31T10:25:29;31.50;68.00
8595;DHT22;4335;48.860;9.198;2023-07-31T10:27:59;31.10;68.00
8595;DHT22;4335;48.860;9.198;2023-07-31T10:30:28;31.40;68.10
8595;DHT22;4335;48.860;9.198;2023-07-31T10:32:59;30.80;68.30
8595;DHT22;4335;48.860;9.198;2023-07-31T10:35:33;30.60;70.30
8595;DHT22;4335;48.860;9.198;2023-07-31T10:38:11;30.00;71.80
8595;DHT22;4335;48.860;9.198;2023-07-31T10:40:37;29.10;74.10
8595;DHT22;4335;48.860;9.198;2023-07-31T10:43:05;28.80;75.10
8595;DHT22;4335;48.860;9.198;2023-07-31T10:45:36;28.70;75.10
8595;DHT22;4335;48.860;9.198;2023-07-31T10:48:04;28.60;75.90
8595;DHT22;4335;48.860;9.198;2023-07-31T10:50:46;28.50;76.70
8595;DHT22;4335;48.860;9.198;2023-07-31T10:53:23;28.50;76.90
8595;DHT22;4335;48.860;9.198;2023-07-31T10:55:57;28.60;76.20
8595;DHT22;4335;48.860;9.198;2023-07-31T10:58:27;28.40;76.40
8595;DHT22;4335;48.860;9.198;2023-07-31T11:00:56;28.40;77.30
8595;DHT22;4335;48.860;9.198;2023-07-31T11:03:25;28.30;77.00
8595;DHT22;4335;48.860;9.198;2023-07-31T11:06:01;28.00;77.40
8595;DHT22;4335;48.860;9.198;2023-07-31T11:08:31;27.90;77.90
8595;DHT22;4335;48.860;9.198;2023-07-31T11:11:07;27.90;79.20
8595;DHT22;4335;48.860;9.198;2023-07-31T11:13:41;27.60;79.80
8595;DHT22;4335;48.860;9.198;2023-07-31T11:16:08;27.30;80.50
8595;DHT22;4335;48.860;9.198;2023-07-31T11:18:35;27.30;81.10
8595;DHT22;4335;48.860;9.198;2023-07-31T11:21:08;27.10;80.90
8595;DHT22;4335;48.860;9.198;2023-07-31T11:23:37;27.10;82.20
8595;DHT22;4335;48.860;9.198;2023-07-31T11:26:07;26.90;82.70
8595;DHT22;4335;48.860;9.198;2023-07-31T11:28:34;26.80;83.20
8595;DHT22;4335;48.860;9.198;2023-07-31T11:31:02;26.60;83.70
8595;DHT22;4335;48.860;9.198;2023-07-31T11:33:29;26.60;84.70
8595;DHT22;4335;48.860;9.198;2023-07-31T11:35:59;26.80;85.50
8595;DHT22;4335;48.860;9.198;2023-07-31T11:38:30;26.70;85.90
8595;DHT22;4335;48.860;9.198;2023-07-31T11:40:59;26.70;85.50
8595;DHT22;4335;48.860;9.198;2023-07-31T11:43:35;26.60;86.00
8595;DHT22;4335;48.860;9.198;2023-07-31T11:46:02;26.50;86.00
8595;DHT22;4335;48.860;9.198;2023-07-31T11:48:30;26.40;87.00
8595;DHT22;4335;48.860;9.198;2023-07-31T11:51:00;26.30;88.50
8595;DHT22;4335;48.860;9.198;2023-07-31T11:53:29;26.20;88.70
8595;DHT22;4335;48.860;9.198;2023-07-31T11:56:02;26.10;89.60
8595;DHT22;4335;48.860;9.198;2023-07-31T11:58:30;26.00;90.10
8595;DHT22;4335;48.860;9.198;2023-07-31T12:00:58;26.00;90.60
8595;DHT22;4335;48.860;9.198;2023-07-31T12:03:26;26.00;90.90
8595;DHT22;4335;48.860;9.198;2023-07-31T12:05:56;26.20;91.30
8595;DHT22;4335;48.860;9.198;2023-07-31T12:08:23;26.20;90.90
8595;DHT22;4335;48.860;9.198;2023-07-31T12:10:51;26.10;90.40
8595;DHT22;4335;48.860;9.198;2023-07-31T12:13:22;26.10;90.30
8595;DHT22;4335;48.860;9.198;2023-07-31T12:15:55;26.20;90.40
8595;DHT22;4335;48.860;9.198;2023-07-31T12:18:24;26.30;90.40
8595;DHT22;4335;48.860;9.198;2023-07-31T12:21:00;26.30;91.00
8595;DHT22;4335;48.860;9.198;2023-07-31T12:23:27;26.10;91.00
8595;DHT22;4335;48.860;9.198;2023-07-31T12:26:00;26.00;91.30
8595;DHT22;4335;48.860;9.198;2023-07-31T12:28:35;26.00;91.60
8595;DHT22;4335;48.860;9.198;2023-07-31T12:31:09;26.00;92.00
8595;DHT22;4335;48.860;9.198;2023-07-31T12:33:37;26.10;92.10
8595;DHT22;4335;48.860;9.198;2023-07-31T12:36:08;26.30;92.10
8595;DHT22;4335;48.860;9.198;2023-07-31T12:38:35;26.50;92.50
8595;DHT22;4335;48.860;9.198;2023-07-31T12:41:02;26.50;92.20
8595;DHT22;4335;48.860;9.198;2023-07-31T12:43:33;26.60;92.00
8595;DHT22;4335;48.860;9.198;2023-07-31T12:46:00;26.70;92.10
8595;DHT22;4335;48.860;9.198;2023-07-31T12:48:29;26.70;91.90
8595;DHT22;4335;48.860;9.198;2023-07-31T12:50:56;26.50;92.20
8595;DHT22;4335;48.860;9.198;2023-07-31T12:53:23;26.30;92.70
8595;DHT22;4335;48.860;9.198;2023-07-31T12:55:49;26.40;92.90
8595;DHT22;4335;48.860;9.198;2023-07-31T12:58:18;26.30;92.60
8595;DHT22;4335;48.860;9.198;2023-07-31T13:00:49;26.30;92.60
8595;DHT22;4335;48.860;9.198;2023-07-31T13:03:21;26.40;92.70
8595;DHT22;4335;48.860;9.198;2023-07-31T13:05:48;26.30;92.70
8595;DHT22;4335;48.860;9.198;2023-07-31T13:08:17;26.20;92.60
8595;DHT22;4335;48.860;9.198;2023-07-31T13:10:44;26.00;91.90
8595;DHT22;4335;48.860;9.198;2023-07-31T13:13:11;25.90;92.50
8595;DHT22;4335;48.860;9.198;2023-07-31T13:15:37;25.70;92.10
8595;DHT22;4335;48.860;9.198;2023-07-31T13:18:05;25.50;92.00
8595;DHT22;4335;48.860;9.198;2023-07-31T13:20:37;25.40;93.20
8595;DHT22;4335;48.860;9.198;2023-07-31T13:23:07;25.40;92.50
8595;DHT22;4335;48.860;9.198;2023-07-31T13:25:39;25.30;92.40
8595;DHT22;4335;48.860;9.198;2023-07-31T13:28:09;25.20;92.50
8595;DHT22;4335;48.860;9.198;2023-07-31T13:30:35;25.30;92.80
8595;DHT22;4335;48.860;9.198;2023-07-31T13:33:10;25.20;93.20
8595;DHT22;4335;48.860;9.198;2023-07-31T13:35:36;25.30;93.70
8595;DHT22;4335;48.860;9.198;2023-07-31T13:38:09;25.40;93.70
8595;DHT22;4335;48.860;9.198;2023-07-31T13:40:35;25.60;93.50
8595;DHT22;4335;48.860;9.198;2023-07-31T13:43:08;25.60;93.40
8595;DHT22;4335;48.860;9.198;2023-07-31T13:45:35;25.70;93.70
8595;DHT22;4335;48.860;9.198;2023-07-31T13:48:07;25.70;93.20
8595;DHT22;4335;48.860;9.198;2023-07-31T13:50:34;25.80;92.70
8595;DHT22;4335;48.860;9.198;2023-07-31T13:53:04;25.70;92.50
8595;DHT22;4335;48.860;9.198;2023-07-31T13:55:33;25.80;92.60
8595;DHT22;4335;48.860;9.198;2023-07-31T13:58:02;25.70;92.60
8595;DHT22;4335;48.860;9.198;2023-07-31T14:00:32;25.70;92.80
8595;DHT22;4335;48.860;9.198;2023-07-31T14:03:13;25.70;92.40
8595;DHT22;4335;48.860;9.198;2023-07-31T14:05:46;25.80;92.90
8595;DHT22;4335;48.860;9.198;2023-07-31T14:08:18;25.80;93.20
8595;DHT22;4335;48.860;9.198;2023-07-31T14:10:47;25.70;93.50
8595;DHT22;4335;48.860;9.198;2023-07-31T14:13:14;25.70;93.50
8595;DHT22;4335;48.860;9.198;2023-07-31T14:15:42;25.70;93.90
8595;DHT22;4335;48.860;9.198;2023-07-31T14:18:09;25.70;93.90
8595;DHT22;4335;48.860;9.198;2023-07-31T14:20:36;25.70;94.00
8595;DHT22;4335;48.860;9.198;2023-07-31T14:23:08;25.90;94.10
8595;DHT22;4335;48.860;9.198;2023-07-31T14:25:53;26.00;94.10
8595;DHT22;4335;48.860;9.198;2023-07-31T14:28:20;26.20;94.10
8595;DHT22;4335;48.860;9.198;2023-07-31T14:30:47;26.30;93.70
8595;DHT22;4335;48.860;9.198;2023-07-31T14:33:14;26.20;93.30
8595;DHT22;4335;48.860;9.198;2023-07-31T14:35:43;26.20;93.50
8595;DHT22;4335;48.860;9.198;2023-07-31T14:38:09;26.20;93.60
8595;DHT22;4335;48.860;9.198;2023-07-31T14:40:38;26.30;93.60
8595;DHT22;4335;48.860;9.198;2023-07-31T14:43:05;26.50;93.80
8595;DHT22;4335;48.860;9.198;2023-07-31T14:45:32;26.50;93.90
8595;DHT22;4335;48.860;9.198;2023-07-31T14:48:00;26.40;94.10
8595;DHT22;4335;48.860;9.198;2023-07-31T14:50:28;26.30;93.90
8595;DHT22;4335;48.860;9.198;2023-07-31T14:52:55;26.20;94.10
8595;DHT22;4335;48.860;9.198;2023-07-31T14:55:27;26.20;94.20
8595;DHT22;4335;48.860;9.198;2023-07-31T14:57:57;26.20;94.30
8595;DHT22;4335;48.860;9.198;2023-07-31T15:00:23;26.20;94.30
8595;DHT22;4335;48.860;9.198;2023-07-31T15:02:50;26.20;94.40
8595;DHT22;4335;48.860;9.198;2023-07-31T15:05:20;26.10;94.50
8595;DHT22;4335;48.860;9.198;2023-07-31T15:07:51;26.10;94.80
8595;DHT22;4335;48.860;9.198;2023-07-31T15:10:17;26.10;94.90
8595;DHT22;4335;48.860;9.198;2023-07-31T15:12:44;26.30;94.90
8595;DHT22;4335;48.860;9.198;2023-07-31T15:15:14;26.50;94.80
8595;DHT22;4335;48.860;9.198;2023-07-31T15:17:41;26.60;94.40
8595;DHT22;4335;48.860;9.198;2023-07-31T15:20:11;26.60;94.50
8595;DHT22;4335;48.860;9.198;2023-07-31T15:22:38;26.60;94.50
8595;DHT22;4335;48.860;9.198;2023-07-31T15:25:07;26.60;94.30
8595;DHT22;4335;48.860;9.198;2023-07-31T15:27:34;26.50;94.40
8595;DHT22;4335;48.860;9.198;2023-07-31T15:30:00;26.40;93.80
8595;DHT22;4335;48.860;9.198;2023-07-31T15:32:30;26.40;94.10
8595;DHT22;4335;48.860;9.198;2023-07-31T15:34:57;26.40;95.00
8595;DHT22;4335;48.860;9.198;2023-07-31T15:37:27;26.30;94.60
8595;DHT22;4335;48.860;9.198;2023-07-31T15:39:54;26.30;94.30
8595;DHT22;4335;48.860;9.198;2023-07-31T15:42:27;26.10;94.00
8595;DHT22;4335;48.860;9.198;2023-07-31T15:44:57;25.90;94.10
8595;DHT22;4335;48.860;9.198;2023-07-31T15:47:24;25.80;94.10
8595;DHT22;4335;48.860;9.198;2023-07-31T15:49:50;25.80;94.10
8595;DHT22;4335;48.860;9.198;2023-07-31T15:52:24;25.80;94.10
8595;DHT22;4335;48.860;9.198;2023-07-31T15:54:54;25.70;94.10
8595;DHT22;4335;48.860;9.198;2023-07-31T15:57:20;25.70;94.20
8595;DHT22;4335;48.860;9.198;2023-07-31T15:59:48;25.70;94.40
8595;DHT22;4335;48.860;9.198;2023-07-31T16:02:14;25.60;94.40
8595;DHT22;4335;48.860;9.198;2023-07-31T16:04:41;25.60;94.50
8595;DHT22;4335;48.860;9.198;2023-07-31T16:07:08;25.50;94.70
8595;DHT22;4335;48.860;9.198;2023-07-31T16:09:34;25.40;94.90
8595;DHT22;4335;48.860;9.198;2023-07-31T16:12:01;25.40;94.80
8595;DHT22;4335;48.860;9.198;2023-07-31T16:14:35;25.40;95.00
8595;DHT22;4335;48.860;9.198;2023-07-31T16:17:03;25.40;95.60